Rejestracja

Wszystkie dane podawane są w czasie UTC za wyjątkiem miejsc gdzie jest jednoznacznie podane, że jest inaczej. Dane podawane w serwisie mają charakter informacyjny!!!
Informacje w sprawie dostępu do serwisu pod numerem tel. +48 22 68-28-138, CA MON (828-138)!!!
W związku z zaplanowanymi pracami konserwacyjnymi, mogą wystąpić utrudnienia z dostępem do domeny meteo.mil.pl . W przypadku wystąpienia problemów prosimy skorzystać z adresów IP: serwis www - http://91.208.93.188 , serwer pocztowy - https://91.208.93.189

Aktualna Pogoda
 
Pogoda w Polsce
-1°C Szczecin -9°C Suwałki -6°C Warszawa -2°C Poznan
-1°C Opole -3°C Kraków -4°C Rzeszów
Więcej miast w Polsce

Pogoda w Europie
-0°C Berlin 9°C Paryz 4°C Bruksela 1°C Oslo
2°C Praga 5°C Zagrzeb
Więcej miast w Europie

Metary wojskowe test
METAR EPCE 282330Z 15009KT 110V180 9999 OVC013 M03/M06 Q1028 RMK M028 082 8/8=
METAR EPDA 282330Z 13010KT 110V220 9999 OVC020 M02/M05 Q1028 RMK M019 077 8/8=
METAR EPDE 282100Z 09006KT 4000 BR SCT012 M05/M07 Q1027 RMK M048 083 4/4=
METAR EPIR 282300Z 09010KT 7000 BKN017 M02/M04 Q1028 RMK M023 087 5/5=
METAR EPKS 282330Z 09010KT 8000 BKN017 M03/M05 Q1025 RMK M027 087 5/5=
METAR EPLK 282330Z 10008KT 6000 NSC M04/M05 Q1026 RMK M043 092 0/0=
METAR EPLY 282300Z 11006KT 6000 SCT011 M03/M04 Q1027 RMK M030 092 3/3=
METAR EPMB 282330Z 11008KT 9999 BKN018 M03/M05 Q1031 RMK M027 082 7/7=
METAR EPMI 282300Z 11010KT 4000 BR OVC010 M03/M05 Q1027 RMK M025 086 8/8=
METAR EPMM 282330Z 12008KT 4000 BR BKN005 M06/M07 Q1029 RMK M063 091 6/6=
METAR EPOK 282330Z 14012KT 9999 OVC017 M02/M05 Q1030 RMK M019 079 8/8=
METAR EPPR 282330Z AUTO 11004KT ///018 M02/M05 Q1030 RMK M018 081=
METAR EPPW 282330Z 09010KT 4000 BR SCT012 M02/M05 Q1026 RMK M023 083 3/3=
METAR EPSN 282330Z 10008KT 7000 BKN017 M03/M05 Q1026 RMK M026 083 7/7=
METAR EPTM 282300Z 07008KT 6000 OVC008 M04/M05 Q1027 RMK M036 092 8/8=


 
Informacje ogólne
Pogoda
Warszawa
Temperatura: -5.8°C
Wiatr: 4.0 m/s
Ciśnienie: 1030.2 hPa
Zjawiska: Brak
Temp. max: -1.6 °C
Temp. min: -5.8 °C


Dane astronomiczne
Warszawa:
Dzien: 08:13 h
Noc: 15:47 h


Using HW VSP powered by HW group.

Prawa autorskie©2007 SSH SZ RP. Wszelkie prawa zastrzeżone.